sensor_id;sensor_type;location;lat;lon;timestamp;temperature;humidity
4826;DHT22;2427;50.934;6.776;2023-10-19T00:01:57;10.50;99.90
4826;DHT22;2427;50.934;6.776;2023-10-19T00:04:25;10.50;99.90
4826;DHT22;2427;50.934;6.776;2023-10-19T00:06:51;10.50;99.90
4826;DHT22;2427;50.934;6.776;2023-10-19T00:09:18;10.50;99.90
4826;DHT22;2427;50.934;6.776;2023-10-19T00:11:45;10.50;99.90
4826;DHT22;2427;50.934;6.776;2023-10-19T00:14:13;10.50;99.90
4826;DHT22;2427;50.934;6.776;2023-10-19T00:16:43;10.60;99.90
4826;DHT22;2427;50.934;6.776;2023-10-19T00:19:15;10.60;99.90
4826;DHT22;2427;50.934;6.776;2023-10-19T00:21:45;10.60;99.90
4826;DHT22;2427;50.934;6.776;2023-10-19T00:24:19;10.60;99.90
4826;DHT22;2427;50.934;6.776;2023-10-19T00:26:47;10.60;99.90
4826;DHT22;2427;50.934;6.776;2023-10-19T00:29:14;10.60;99.90
4826;DHT22;2427;50.934;6.776;2023-10-19T00:31:58;10.70;99.90
4826;DHT22;2427;50.934;6.776;2023-10-19T00:34:27;10.70;99.90
4826;DHT22;2427;50.934;6.776;2023-10-19T00:36:54;10.60;99.90
4826;DHT22;2427;50.934;6.776;2023-10-19T00:39:22;10.60;99.90
4826;DHT22;2427;50.934;6.776;2023-10-19T00:41:48;10.60;99.90
4826;DHT22;2427;50.934;6.776;2023-10-19T00:44:14;10.60;99.90
4826;DHT22;2427;50.934;6.776;2023-10-19T00:47:01;10.60;99.90
4826;DHT22;2427;50.934;6.776;2023-10-19T00:49:33;10.60;99.90
4826;DHT22;2427;50.934;6.776;2023-10-19T00:52:00;10.70;99.90
4826;DHT22;2427;50.934;6.776;2023-10-19T00:54:40;10.70;99.90
4826;DHT22;2427;50.934;6.776;2023-10-19T00:57:20;10.70;99.90
4826;DHT22;2427;50.934;6.776;2023-10-19T00:59:46;10.70;99.90
4826;DHT22;2427;50.934;6.776;2023-10-19T01:12:40;10.90;99.90
4826;DHT22;2427;50.934;6.776;2023-10-19T01:15:10;10.90;99.90
4826;DHT22;2427;50.934;6.776;2023-10-19T01:17:51;10.90;99.90
4826;DHT22;2427;50.934;6.776;2023-10-19T01:20:21;10.90;99.90
4826;DHT22;2427;50.934;6.776;2023-10-19T01:23:06;10.90;99.90
4826;DHT22;2427;50.934;6.776;2023-10-19T01:25:55;11.00;99.90
4826;DHT22;2427;50.934;6.776;2023-10-19T01:28:21;11.00;99.90
4826;DHT22;2427;50.934;6.776;2023-10-19T01:30:51;11.00;99.90
4826;DHT22;2427;50.934;6.776;2023-10-19T01:33:20;11.00;99.90
4826;DHT22;2427;50.934;6.776;2023-10-19T01:35:47;11.10;99.90
4826;DHT22;2427;50.934;6.776;2023-10-19T01:38:31;11.10;99.90
4826;DHT22;2427;50.934;6.776;2023-10-19T01:41:01;11.10;99.90
4826;DHT22;2427;50.934;6.776;2023-10-19T01:43:31;11.10;99.90
4826;DHT22;2427;50.934;6.776;2023-10-19T01:45:58;11.10;99.90
4826;DHT22;2427;50.934;6.776;2023-10-19T01:48:29;11.20;99.90
4826;DHT22;2427;50.934;6.776;2023-10-19T01:51:03;11.10;99.90
4826;DHT22;2427;50.934;6.776;2023-10-19T01:53:31;11.20;99.90
4826;DHT22;2427;50.934;6.776;2023-10-19T01:55:57;11.20;99.90
4826;DHT22;2427;50.934;6.776;2023-10-19T01:58:26;11.20;99.90
4826;DHT22;2427;50.934;6.776;2023-10-19T02:00:53;11.30;99.90
4826;DHT22;2427;50.934;6.776;2023-10-19T02:03:20;11.30;99.90
4826;DHT22;2427;50.934;6.776;2023-10-19T02:05:57;11.30;99.90
4826;DHT22;2427;50.934;6.776;2023-10-19T02:08:24;11.30;99.90
4826;DHT22;2427;50.934;6.776;2023-10-19T02:10:52;11.30;99.90
4826;DHT22;2427;50.934;6.776;2023-10-19T02:13:18;11.30;99.90
4826;DHT22;2427;50.934;6.776;2023-10-19T02:15:44;11.30;99.90
4826;DHT22;2427;50.934;6.776;2023-10-19T02:18:10;11.30;99.90
4826;DHT22;2427;50.934;6.776;2023-10-19T02:20:36;11.30;99.90
4826;DHT22;2427;50.934;6.776;2023-10-19T02:23:07;11.30;99.90
4826;DHT22;2427;50.934;6.776;2023-10-19T02:25:33;11.40;99.90
4826;DHT22;2427;50.934;6.776;2023-10-19T02:28:05;11.40;99.90
4826;DHT22;2427;50.934;6.776;2023-10-19T02:30:34;11.30;99.90
4826;DHT22;2427;50.934;6.776;2023-10-19T02:33:01;11.30;99.90
4826;DHT22;2427;50.934;6.776;2023-10-19T02:35:28;11.20;99.90
4826;DHT22;2427;50.934;6.776;2023-10-19T02:37:54;11.20;99.90
4826;DHT22;2427;50.934;6.776;2023-10-19T02:40:21;11.20;99.90
4826;DHT22;2427;50.934;6.776;2023-10-19T02:42:49;11.20;99.90
4826;DHT22;2427;50.934;6.776;2023-10-19T02:45:19;11.20;99.90
4826;DHT22;2427;50.934;6.776;2023-10-19T02:47:45;11.20;99.90
4826;DHT22;2427;50.934;6.776;2023-10-19T02:50:12;11.20;99.90
4826;DHT22;2427;50.934;6.776;2023-10-19T02:52:48;11.20;99.90
4826;DHT22;2427;50.934;6.776;2023-10-19T02:55:14;11.20;99.90
4826;DHT22;2427;50.934;6.776;2023-10-19T02:57:43;11.20;99.90
4826;DHT22;2427;50.934;6.776;2023-10-19T03:00:12;11.10;99.90
4826;DHT22;2427;50.934;6.776;2023-10-19T03:02:40;11.20;99.90
4826;DHT22;2427;50.934;6.776;2023-10-19T03:05:06;11.10;99.90
4826;DHT22;2427;50.934;6.776;2023-10-19T03:07:43;11.10;99.90
4826;DHT22;2427;50.934;6.776;2023-10-19T03:10:10;11.10;99.90
4826;DHT22;2427;50.934;6.776;2023-10-19T03:12:56;11.10;99.90
4826;DHT22;2427;50.934;6.776;2023-10-19T03:15:22;11.10;99.90
4826;DHT22;2427;50.934;6.776;2023-10-19T03:17:49;11.10;99.90
4826;DHT22;2427;50.934;6.776;2023-10-19T03:20:14;11.10;99.90
4826;DHT22;2427;50.934;6.776;2023-10-19T03:22:42;11.00;99.90
4826;DHT22;2427;50.934;6.776;2023-10-19T03:25:09;11.00;99.90
4826;DHT22;2427;50.934;6.776;2023-10-19T03:27:54;11.00;99.90
4826;DHT22;2427;50.934;6.776;2023-10-19T03:30:21;10.90;99.90
4826;DHT22;2427;50.934;6.776;2023-10-19T03:32:50;10.90;99.90
4826;DHT22;2427;50.934;6.776;2023-10-19T03:35:15;10.90;99.90
4826;DHT22;2427;50.934;6.776;2023-10-19T03:37:41;10.90;99.90
4826;DHT22;2427;50.934;6.776;2023-10-19T03:40:08;11.00;99.90
4826;DHT22;2427;50.934;6.776;2023-10-19T03:42:36;11.00;99.90
4826;DHT22;2427;50.934;6.776;2023-10-19T03:45:09;11.10;99.90
4826;DHT22;2427;50.934;6.776;2023-10-19T03:47:39;11.10;99.90
4826;DHT22;2427;50.934;6.776;2023-10-19T03:50:05;11.20;99.90
4826;DHT22;2427;50.934;6.776;2023-10-19T03:52:39;11.20;99.90
4826;DHT22;2427;50.934;6.776;2023-10-19T03:55:06;11.20;99.90
4826;DHT22;2427;50.934;6.776;2023-10-19T03:57:43;11.20;99.90
4826;DHT22;2427;50.934;6.776;2023-10-19T04:00:16;11.30;99.90
4826;DHT22;2427;50.934;6.776;2023-10-19T04:02:47;11.30;99.90
4826;DHT22;2427;50.934;6.776;2023-10-19T04:05:13;11.30;99.90
4826;DHT22;2427;50.934;6.776;2023-10-19T04:07:47;11.30;99.90
4826;DHT22;2427;50.934;6.776;2023-10-19T04:10:15;11.30;99.90
4826;DHT22;2427;50.934;6.776;2023-10-19T04:13:04;11.30;99.90
4826;DHT22;2427;50.934;6.776;2023-10-19T04:15:35;11.30;99.90
4826;DHT22;2427;50.934;6.776;2023-10-19T04:18:02;11.40;99.90
4826;DHT22;2427;50.934;6.776;2023-10-19T04:20:34;11.40;99.90
4826;DHT22;2427;50.934;6.776;2023-10-19T04:23:18;11.40;99.90
4826;DHT22;2427;50.934;6.776;2023-10-19T04:25:46;11.30;99.90
4826;DHT22;2427;50.934;6.776;2023-10-19T04:28:11;11.30;99.90
4826;DHT22;2427;50.934;6.776;2023-10-19T04:30:39;11.30;99.90
4826;DHT22;2427;50.934;6.776;2023-10-19T04:33:05;11.30;99.90
4826;DHT22;2427;50.934;6.776;2023-10-19T04:35:35;11.40;99.90
4826;DHT22;2427;50.934;6.776;2023-10-19T04:38:03;11.40;99.90
4826;DHT22;2427;50.934;6.776;2023-10-19T04:40:28;11.40;99.90
4826;DHT22;2427;50.934;6.776;2023-10-19T04:42:54;11.50;99.90
4826;DHT22;2427;50.934;6.776;2023-10-19T04:45:20;11.50;99.90
4826;DHT22;2427;50.934;6.776;2023-10-19T04:47:49;11.40;99.90
4826;DHT22;2427;50.934;6.776;2023-10-19T04:50:14;11.40;99.90
4826;DHT22;2427;50.934;6.776;2023-10-19T04:52:42;11.40;99.90
4826;DHT22;2427;50.934;6.776;2023-10-19T04:55:08;11.40;99.90
4826;DHT22;2427;50.934;6.776;2023-10-19T04:57:33;11.40;99.90
4826;DHT22;2427;50.934;6.776;2023-10-19T04:59:59;11.50;99.90
4826;DHT22;2427;50.934;6.776;2023-10-19T05:02:25;11.50;99.90
4826;DHT22;2427;50.934;6.776;2023-10-19T05:04:51;11.50;99.90
4826;DHT22;2427;50.934;6.776;2023-10-19T05:07:16;11.50;99.90
4826;DHT22;2427;50.934;6.776;2023-10-19T05:09:43;11.50;99.90
4826;DHT22;2427;50.934;6.776;2023-10-19T05:12:09;11.50;99.90
4826;DHT22;2427;50.934;6.776;2023-10-19T05:14:40;11.50;99.90
4826;DHT22;2427;50.934;6.776;2023-10-19T05:17:07;11.60;99.90
4826;DHT22;2427;50.934;6.776;2023-10-19T05:19:35;11.60;99.90
4826;DHT22;2427;50.934;6.776;2023-10-19T05:22:05;11.60;99.90
4826;DHT22;2427;50.934;6.776;2023-10-19T05:24:31;11.60;99.90
4826;DHT22;2427;50.934;6.776;2023-10-19T05:26:57;11.60;99.90
4826;DHT22;2427;50.934;6.776;2023-10-19T05:29:23;11.60;99.90
4826;DHT22;2427;50.934;6.776;2023-10-19T05:31:52;11.60;99.90
4826;DHT22;2427;50.934;6.776;2023-10-19T05:34:23;11.60;99.90
4826;DHT22;2427;50.934;6.776;2023-10-19T05:36:49;11.60;99.90
4826;DHT22;2427;50.934;6.776;2023-10-19T05:39:18;11.60;99.90
4826;DHT22;2427;50.934;6.776;2023-10-19T05:41:44;11.60;99.90
4826;DHT22;2427;50.934;6.776;2023-10-19T05:44:10;11.60;99.90
4826;DHT22;2427;50.934;6.776;2023-10-19T05:46:36;11.60;99.90
4826;DHT22;2427;50.934;6.776;2023-10-19T05:49:02;11.60;99.90
4826;DHT22;2427;50.934;6.776;2023-10-19T05:51:29;11.60;99.90
4826;DHT22;2427;50.934;6.776;2023-10-19T05:53:55;11.60;99.90
4826;DHT22;2427;50.934;6.776;2023-10-19T05:56:27;11.60;99.90
4826;DHT22;2427;50.934;6.776;2023-10-19T05:58:53;11.60;99.90
4826;DHT22;2427;50.934;6.776;2023-10-19T06:01:19;11.60;99.90
4826;DHT22;2427;50.934;6.776;2023-10-19T06:03:45;11.60;99.90
4826;DHT22;2427;50.934;6.776;2023-10-19T06:06:11;11.60;99.90
4826;DHT22;2427;50.934;6.776;2023-10-19T06:08:36;11.60;99.90
4826;DHT22;2427;50.934;6.776;2023-10-19T06:11:02;11.60;99.90
4826;DHT22;2427;50.934;6.776;2023-10-19T06:13:28;11.60;99.90
4826;DHT22;2427;50.934;6.776;2023-10-19T06:15:55;11.60;99.90
4826;DHT22;2427;50.934;6.776;2023-10-19T06:18:20;11.60;99.90
4826;DHT22;2427;50.934;6.776;2023-10-19T06:20:46;11.60;99.90
4826;DHT22;2427;50.934;6.776;2023-10-19T06:23:12;11.60;99.90
4826;DHT22;2427;50.934;6.776;2023-10-19T06:25:38;11.60;99.90
4826;DHT22;2427;50.934;6.776;2023-10-19T06:28:04;11.60;99.90
4826;DHT22;2427;50.934;6.776;2023-10-19T06:30:31;11.60;99.90
4826;DHT22;2427;50.934;6.776;2023-10-19T06:32:58;11.70;99.90
4826;DHT22;2427;50.934;6.776;2023-10-19T06:35:28;11.60;99.90
4826;DHT22;2427;50.934;6.776;2023-10-19T06:37:55;11.70;99.90
4826;DHT22;2427;50.934;6.776;2023-10-19T06:40:21;11.70;99.90
4826;DHT22;2427;50.934;6.776;2023-10-19T06:42:48;11.70;99.90
4826;DHT22;2427;50.934;6.776;2023-10-19T06:45:16;11.70;99.90
4826;DHT22;2427;50.934;6.776;2023-10-19T06:47:42;11.70;99.90
4826;DHT22;2427;50.934;6.776;2023-10-19T06:50:08;11.70;99.90
4826;DHT22;2427;50.934;6.776;2023-10-19T06:52:37;11.70;99.90
4826;DHT22;2427;50.934;6.776;2023-10-19T06:55:07;11.80;99.90
4826;DHT22;2427;50.934;6.776;2023-10-19T06:57:44;11.80;99.90
4826;DHT22;2427;50.934;6.776;2023-10-19T07:00:14;11.80;99.90
4826;DHT22;2427;50.934;6.776;2023-10-19T07:02:42;11.90;99.90
4826;DHT22;2427;50.934;6.776;2023-10-19T07:05:08;11.90;99.90
4826;DHT22;2427;50.934;6.776;2023-10-19T07:07:42;11.90;99.90
4826;DHT22;2427;50.934;6.776;2023-10-19T07:10:08;11.90;99.90
4826;DHT22;2427;50.934;6.776;2023-10-19T07:12:36;12.00;99.90
4826;DHT22;2427;50.934;6.776;2023-10-19T07:15:06;12.00;99.90
4826;DHT22;2427;50.934;6.776;2023-10-19T07:17:34;12.00;99.90
4826;DHT22;2427;50.934;6.776;2023-10-19T07:20:00;12.10;99.90
4826;DHT22;2427;50.934;6.776;2023-10-19T07:22:26;12.10;99.90
4826;DHT22;2427;50.934;6.776;2023-10-19T07:24:53;12.20;99.90
4826;DHT22;2427;50.934;6.776;2023-10-19T07:27:20;12.20;99.90
4826;DHT22;2427;50.934;6.776;2023-10-19T07:29:46;12.20;99.90
4826;DHT22;2427;50.934;6.776;2023-10-19T07:32:13;12.20;99.90
4826;DHT22;2427;50.934;6.776;2023-10-19T07:34:42;12.30;99.90
4826;DHT22;2427;50.934;6.776;2023-10-19T07:37:10;12.30;99.90
4826;DHT22;2427;50.934;6.776;2023-10-19T07:39:49;12.30;99.90
4826;DHT22;2427;50.934;6.776;2023-10-19T07:42:17;12.30;99.90
4826;DHT22;2427;50.934;6.776;2023-10-19T07:44:43;12.40;99.90
4826;DHT22;2427;50.934;6.776;2023-10-19T07:47:11;12.50;99.90
4826;DHT22;2427;50.934;6.776;2023-10-19T07:49:38;12.60;99.90
4826;DHT22;2427;50.934;6.776;2023-10-19T07:52:04;12.70;99.90
4826;DHT22;2427;50.934;6.776;2023-10-19T07:54:35;12.80;99.90
4826;DHT22;2427;50.934;6.776;2023-10-19T07:57:02;12.80;99.90
4826;DHT22;2427;50.934;6.776;2023-10-19T07:59:34;12.90;99.90
4826;DHT22;2427;50.934;6.776;2023-10-19T08:02:01;13.00;99.90
4826;DHT22;2427;50.934;6.776;2023-10-19T08:04:28;13.10;99.90
4826;DHT22;2427;50.934;6.776;2023-10-19T08:06:54;13.20;99.90
4826;DHT22;2427;50.934;6.776;2023-10-19T08:09:21;13.20;99.90
4826;DHT22;2427;50.934;6.776;2023-10-19T08:11:48;13.30;99.90
4826;DHT22;2427;50.934;6.776;2023-10-19T08:14:14;13.30;99.90
4826;DHT22;2427;50.934;6.776;2023-10-19T08:16:40;13.40;99.90
4826;DHT22;2427;50.934;6.776;2023-10-19T08:19:07;13.50;99.90
4826;DHT22;2427;50.934;6.776;2023-10-19T08:21:33;13.60;99.90
4826;DHT22;2427;50.934;6.776;2023-10-19T08:24:00;13.60;99.90
4826;DHT22;2427;50.934;6.776;2023-10-19T08:26:30;13.70;99.90
4826;DHT22;2427;50.934;6.776;2023-10-19T08:28:56;13.80;99.90
4826;DHT22;2427;50.934;6.776;2023-10-19T08:31:22;13.90;99.90
4826;DHT22;2427;50.934;6.776;2023-10-19T08:33:49;14.00;99.90
4826;DHT22;2427;50.934;6.776;2023-10-19T08:36:18;14.00;99.90
4826;DHT22;2427;50.934;6.776;2023-10-19T08:38:47;14.10;99.90
4826;DHT22;2427;50.934;6.776;2023-10-19T08:41:14;14.30;99.90
4826;DHT22;2427;50.934;6.776;2023-10-19T08:43:40;14.30;99.90
4826;DHT22;2427;50.934;6.776;2023-10-19T08:46:06;14.40;99.90
4826;DHT22;2427;50.934;6.776;2023-10-19T08:48:34;14.50;99.90
4826;DHT22;2427;50.934;6.776;2023-10-19T08:51:03;14.60;99.90
4826;DHT22;2427;50.934;6.776;2023-10-19T08:53:33;14.60;99.90
4826;DHT22;2427;50.934;6.776;2023-10-19T08:56:05;14.70;99.90
4826;DHT22;2427;50.934;6.776;2023-10-19T08:58:32;14.80;99.90
4826;DHT22;2427;50.934;6.776;2023-10-19T09:00:57;14.90;99.90
4826;DHT22;2427;50.934;6.776;2023-10-19T09:03:31;15.00;99.90
4826;DHT22;2427;50.934;6.776;2023-10-19T09:05:57;15.00;99.90
4826;DHT22;2427;50.934;6.776;2023-10-19T09:08:22;15.20;99.90
4826;DHT22;2427;50.934;6.776;2023-10-19T09:10:49;15.30;99.90
4826;DHT22;2427;50.934;6.776;2023-10-19T09:13:17;15.40;99.90
4826;DHT22;2427;50.934;6.776;2023-10-19T09:15:48;15.50;99.90
4826;DHT22;2427;50.934;6.776;2023-10-19T09:18:22;15.60;99.90
4826;DHT22;2427;50.934;6.776;2023-10-19T09:20:52;15.60;65.60
4826;DHT22;2427;50.934;6.776;2023-10-19T09:23:35;15.60;17.00
4826;DHT22;2427;50.934;6.776;2023-10-19T09:26:02;15.70;20.10
4826;DHT22;2427;50.934;6.776;2023-10-19T09:28:37;15.70;3.00
4826;DHT22;2427;50.934;6.776;2023-10-19T09:31:03;15.80;3.50
4826;DHT22;2427;50.934;6.776;2023-10-19T09:33:34;15.90;1.00
4826;DHT22;2427;50.934;6.776;2023-10-19T09:36:01;16.00;1.00
4826;DHT22;2427;50.934;6.776;2023-10-19T09:38:27;16.10;1.00
4826;DHT22;2427;50.934;6.776;2023-10-19T09:40:54;16.20;1.00
4826;DHT22;2427;50.934;6.776;2023-10-19T09:43:43;16.20;1.00
4826;DHT22;2427;50.934;6.776;2023-10-19T09:46:10;16.40;1.00
4826;DHT22;2427;50.934;6.776;2023-10-19T09:48:43;16.60;1.00
4826;DHT22;2427;50.934;6.776;2023-10-19T09:51:11;16.70;1.00
4826;DHT22;2427;50.934;6.776;2023-10-19T09:53:38;16.90;1.00
4826;DHT22;2427;50.934;6.776;2023-10-19T09:56:07;17.00;99.90
4826;DHT22;2427;50.934;6.776;2023-10-19T09:58:46;17.10;99.90
4826;DHT22;2427;50.934;6.776;2023-10-19T10:01:15;17.20;8.80
4826;DHT22;2427;50.934;6.776;2023-10-19T10:03:44;17.40;1.00
4826;DHT22;2427;50.934;6.776;2023-10-19T10:06:15;17.50;1.00
4826;DHT22;2427;50.934;6.776;2023-10-19T10:08:45;17.60;1.00
4826;DHT22;2427;50.934;6.776;2023-10-19T10:11:21;17.80;99.90
4826;DHT22;2427;50.934;6.776;2023-10-19T10:13:48;17.90;99.90
4826;DHT22;2427;50.934;6.776;2023-10-19T10:16:19;18.20;99.90
4826;DHT22;2427;50.934;6.776;2023-10-19T10:18:47;18.60;99.90
4826;DHT22;2427;50.934;6.776;2023-10-19T10:21:15;18.90;1.00
4826;DHT22;2427;50.934;6.776;2023-10-19T10:23:56;19.30;99.90
4826;DHT22;2427;50.934;6.776;2023-10-19T10:26:25;19.60;99.90
4826;DHT22;2427;50.934;6.776;2023-10-19T10:29:13;19.80;99.90
4826;DHT22;2427;50.934;6.776;2023-10-19T10:31:47;19.90;99.90
4826;DHT22;2427;50.934;6.776;2023-10-19T10:37:05;19.70;1.00
4826;DHT22;2427;50.934;6.776;2023-10-19T10:39:33;19.50;1.00
4826;DHT22;2427;50.934;6.776;2023-10-19T10:42:07;19.50;1.00
4826;DHT22;2427;50.934;6.776;2023-10-19T10:44:47;19.40;1.00
4826;DHT22;2427;50.934;6.776;2023-10-19T10:52:33;19.30;1.00
4826;DHT22;2427;50.934;6.776;2023-10-19T10:55:08;19.20;1.00
4826;DHT22;2427;50.934;6.776;2023-10-19T10:57:36;19.10;1.00
4826;DHT22;2427;50.934;6.776;2023-10-19T11:00:07;19.10;1.00
4826;DHT22;2427;50.934;6.776;2023-10-19T11:02:36;19.00;1.00
4826;DHT22;2427;50.934;6.776;2023-10-19T11:05:11;19.00;1.00
4826;DHT22;2427;50.934;6.776;2023-10-19T11:07:38;18.90;1.00
4826;DHT22;2427;50.934;6.776;2023-10-19T11:10:04;18.80;1.00
4826;DHT22;2427;50.934;6.776;2023-10-19T11:12:31;18.80;1.00
4826;DHT22;2427;50.934;6.776;2023-10-19T11:14:58;18.80;1.00
4826;DHT22;2427;50.934;6.776;2023-10-19T11:17:25;18.80;1.00
4826;DHT22;2427;50.934;6.776;2023-10-19T11:19:56;18.80;1.00
4826;DHT22;2427;50.934;6.776;2023-10-19T11:22:25;18.70;1.00
4826;DHT22;2427;50.934;6.776;2023-10-19T11:24:53;18.70;1.00
4826;DHT22;2427;50.934;6.776;2023-10-19T11:27:25;18.70;1.00
4826;DHT22;2427;50.934;6.776;2023-10-19T11:29:58;18.80;1.00
4826;DHT22;2427;50.934;6.776;2023-10-19T11:32:25;18.80;1.00
4826;DHT22;2427;50.934;6.776;2023-10-19T11:34:52;18.70;1.00
4826;DHT22;2427;50.934;6.776;2023-10-19T11:37:18;18.70;1.00
4826;DHT22;2427;50.934;6.776;2023-10-19T11:39:43;18.70;1.00
4826;DHT22;2427;50.934;6.776;2023-10-19T11:42:11;18.70;1.00
4826;DHT22;2427;50.934;6.776;2023-10-19T11:44:37;18.80;1.00
4826;DHT22;2427;50.934;6.776;2023-10-19T11:47:03;18.80;1.00
4826;DHT22;2427;50.934;6.776;2023-10-19T11:49:29;18.80;1.00
4826;DHT22;2427;50.934;6.776;2023-10-19T11:51:54;18.70;1.00
4826;DHT22;2427;50.934;6.776;2023-10-19T11:54:20;18.70;1.00
4826;DHT22;2427;50.934;6.776;2023-10-19T11:56:46;18.60;1.00
4826;DHT22;2427;50.934;6.776;2023-10-19T11:59:13;18.60;1.00
4826;DHT22;2427;50.934;6.776;2023-10-19T12:01:40;18.50;1.00
4826;DHT22;2427;50.934;6.776;2023-10-19T12:04:06;18.50;1.00
4826;DHT22;2427;50.934;6.776;2023-10-19T12:06:32;18.40;1.00
4826;DHT22;2427;50.934;6.776;2023-10-19T12:08:57;18.30;1.00
4826;DHT22;2427;50.934;6.776;2023-10-19T12:11:25;18.30;1.00
4826;DHT22;2427;50.934;6.776;2023-10-19T12:13:50;18.20;1.00
4826;DHT22;2427;50.934;6.776;2023-10-19T12:16:16;18.10;1.00
4826;DHT22;2427;50.934;6.776;2023-10-19T12:18:43;18.00;1.00
4826;DHT22;2427;50.934;6.776;2023-10-19T12:21:09;17.90;1.00
4826;DHT22;2427;50.934;6.776;2023-10-19T12:23:42;17.90;1.00
4826;DHT22;2427;50.934;6.776;2023-10-19T12:26:08;17.80;1.00
4826;DHT22;2427;50.934;6.776;2023-10-19T12:28:38;17.70;1.00
4826;DHT22;2427;50.934;6.776;2023-10-19T12:31:04;17.70;27.10
4826;DHT22;2427;50.934;6.776;2023-10-19T12:33:31;17.60;90.60
4826;DHT22;2427;50.934;6.776;2023-10-19T12:35:56;17.60;39.20
4826;DHT22;2427;50.934;6.776;2023-10-19T12:38:23;17.50;92.80
4826;DHT22;2427;50.934;6.776;2023-10-19T12:40:49;17.50;99.90
4826;DHT22;2427;50.934;6.776;2023-10-19T12:43:17;17.40;99.90
4826;DHT22;2427;50.934;6.776;2023-10-19T12:45:48;17.30;1.00
4826;DHT22;2427;50.934;6.776;2023-10-19T12:48:16;17.30;1.00
4826;DHT22;2427;50.934;6.776;2023-10-19T12:50:42;17.20;1.00
4826;DHT22;2427;50.934;6.776;2023-10-19T12:53:08;17.10;98.00
4826;DHT22;2427;50.934;6.776;2023-10-19T12:55:38;17.10;99.90
4826;DHT22;2427;50.934;6.776;2023-10-19T12:58:04;17.10;99.90
4826;DHT22;2427;50.934;6.776;2023-10-19T13:00:34;17.00;99.90
4826;DHT22;2427;50.934;6.776;2023-10-19T13:03:10;17.00;99.90
4826;DHT22;2427;50.934;6.776;2023-10-19T13:05:43;17.00;1.00
4826;DHT22;2427;50.934;6.776;2023-10-19T13:08:13;16.90;1.00
4826;DHT22;2427;50.934;6.776;2023-10-19T13:10:40;16.90;1.00
4826;DHT22;2427;50.934;6.776;2023-10-19T13:13:09;16.80;1.00
4826;DHT22;2427;50.934;6.776;2023-10-19T13:15:39;16.70;99.90
4826;DHT22;2427;50.934;6.776;2023-10-19T13:18:07;16.60;1.00
4826;DHT22;2427;50.934;6.776;2023-10-19T13:20:35;16.50;1.00
4826;DHT22;2427;50.934;6.776;2023-10-19T13:23:08;16.50;1.00
4826;DHT22;2427;50.934;6.776;2023-10-19T13:25:38;16.40;86.60
4826;DHT22;2427;50.934;6.776;2023-10-19T13:28:08;16.40;1.00
4826;DHT22;2427;50.934;6.776;2023-10-19T13:30:42;16.30;99.90
4826;DHT22;2427;50.934;6.776;2023-10-19T13:33:10;16.30;99.90
4826;DHT22;2427;50.934;6.776;2023-10-19T13:35:37;16.20;94.20
4826;DHT22;2427;50.934;6.776;2023-10-19T13:38:05;16.20;99.90
4826;DHT22;2427;50.934;6.776;2023-10-19T13:40:31;16.10;1.00
4826;DHT22;2427;50.934;6.776;2023-10-19T13:42:58;16.00;1.00
4826;DHT22;2427;50.934;6.776;2023-10-19T13:45:24;16.00;1.00
4826;DHT22;2427;50.934;6.776;2023-10-19T13:47:50;15.90;1.00
4826;DHT22;2427;50.934;6.776;2023-10-19T13:50:22;15.80;31.00
4826;DHT22;2427;50.934;6.776;2023-10-19T13:52:56;15.80;61.00
4826;DHT22;2427;50.934;6.776;2023-10-19T13:55:25;15.80;90.10
4826;DHT22;2427;50.934;6.776;2023-10-19T13:57:51;15.80;99.90
4826;DHT22;2427;50.934;6.776;2023-10-19T14:00:18;15.80;99.90
4826;DHT22;2427;50.934;6.776;2023-10-19T14:02:56;15.80;99.90
4826;DHT22;2427;50.934;6.776;2023-10-19T14:05:22;15.80;99.90
4826;DHT22;2427;50.934;6.776;2023-10-19T14:07:50;15.90;99.90
4826;DHT22;2427;50.934;6.776;2023-10-19T14:10:17;15.90;99.90
4826;DHT22;2427;50.934;6.776;2023-10-19T14:12:45;15.90;99.90
4826;DHT22;2427;50.934;6.776;2023-10-19T14:15:20;16.00;99.90
4826;DHT22;2427;50.934;6.776;2023-10-19T14:17:47;15.90;99.90
4826;DHT22;2427;50.934;6.776;2023-10-19T14:20:14;15.80;99.90
4826;DHT22;2427;50.934;6.776;2023-10-19T14:22:40;15.80;99.90
4826;DHT22;2427;50.934;6.776;2023-10-19T14:25:07;15.70;99.90
4826;DHT22;2427;50.934;6.776;2023-10-19T14:27:38;15.70;99.90
4826;DHT22;2427;50.934;6.776;2023-10-19T14:30:05;15.60;99.90
4826;DHT22;2427;50.934;6.776;2023-10-19T14:32:30;15.60;99.90
4826;DHT22;2427;50.934;6.776;2023-10-19T14:34:56;15.60;99.90
4826;DHT22;2427;50.934;6.776;2023-10-19T14:37:21;15.50;99.90
4826;DHT22;2427;50.934;6.776;2023-10-19T14:39:47;15.50;99.90
4826;DHT22;2427;50.934;6.776;2023-10-19T14:42:12;15.50;99.90
4826;DHT22;2427;50.934;6.776;2023-10-19T14:44:38;15.50;99.90
4826;DHT22;2427;50.934;6.776;2023-10-19T14:47:05;15.50;99.90
4826;DHT22;2427;50.934;6.776;2023-10-19T14:49:31;15.50;99.90
4826;DHT22;2427;50.934;6.776;2023-10-19T14:51:58;15.50;99.90
4826;DHT22;2427;50.934;6.776;2023-10-19T14:54:23;15.50;99.90
4826;DHT22;2427;50.934;6.776;2023-10-19T14:56:49;15.50;99.90
4826;DHT22;2427;50.934;6.776;2023-10-19T14:59:14;15.50;99.90
4826;DHT22;2427;50.934;6.776;2023-10-19T15:01:40;15.50;99.90
4826;DHT22;2427;50.934;6.776;2023-10-19T15:04:06;15.60;99.90
4826;DHT22;2427;50.934;6.776;2023-10-19T15:06:32;15.70;99.90
4826;DHT22;2427;50.934;6.776;2023-10-19T15:08:57;15.70;99.90
4826;DHT22;2427;50.934;6.776;2023-10-19T15:11:23;15.80;99.90
4826;DHT22;2427;50.934;6.776;2023-10-19T15:13:56;15.90;99.90
4826;DHT22;2427;50.934;6.776;2023-10-19T15:16:23;16.00;99.90
4826;DHT22;2427;50.934;6.776;2023-10-19T15:18:49;16.00;99.90
4826;DHT22;2427;50.934;6.776;2023-10-19T15:21:14;16.10;99.90
4826;DHT22;2427;50.934;6.776;2023-10-19T15:23:40;16.10;99.90
4826;DHT22;2427;50.934;6.776;2023-10-19T15:26:08;16.10;99.90
4826;DHT22;2427;50.934;6.776;2023-10-19T15:28:34;16.00;99.90
4826;DHT22;2427;50.934;6.776;2023-10-19T15:31:00;16.00;99.90
4826;DHT22;2427;50.934;6.776;2023-10-19T15:33:26;16.00;99.90
4826;DHT22;2427;50.934;6.776;2023-10-19T15:35:52;16.00;99.90
4826;DHT22;2427;50.934;6.776;2023-10-19T15:38:19;16.00;99.90
4826;DHT22;2427;50.934;6.776;2023-10-19T15:40:45;16.10;99.90
4826;DHT22;2427;50.934;6.776;2023-10-19T15:43:10;16.20;99.90
4826;DHT22;2427;50.934;6.776;2023-10-19T15:45:36;16.30;99.90
4826;DHT22;2427;50.934;6.776;2023-10-19T15:48:05;16.30;99.90
4826;DHT22;2427;50.934;6.776;2023-10-19T15:50:31;16.40;99.90
4826;DHT22;2427;50.934;6.776;2023-10-19T15:53:00;16.40;99.90
4826;DHT22;2427;50.934;6.776;2023-10-19T15:55:25;16.30;99.90
4826;DHT22;2427;50.934;6.776;2023-10-19T15:57:51;16.20;99.90
4826;DHT22;2427;50.934;6.776;2023-10-19T16:00:18;16.10;99.90
4826;DHT22;2427;50.934;6.776;2023-10-19T16:02:43;16.00;99.90
4826;DHT22;2427;50.934;6.776;2023-10-19T16:05:10;15.90;99.90
4826;DHT22;2427;50.934;6.776;2023-10-19T16:07:41;15.80;99.90
4826;DHT22;2427;50.934;6.776;2023-10-19T16:10:07;15.70;99.90
4826;DHT22;2427;50.934;6.776;2023-10-19T16:12:34;15.60;99.90
4826;DHT22;2427;50.934;6.776;2023-10-19T16:15:00;15.50;99.90
4826;DHT22;2427;50.934;6.776;2023-10-19T16:17:25;15.50;99.90
4826;DHT22;2427;50.934;6.776;2023-10-19T16:19:52;15.40;99.90
4826;DHT22;2427;50.934;6.776;2023-10-19T16:22:19;15.40;99.90
4826;DHT22;2427;50.934;6.776;2023-10-19T16:24:45;15.30;99.90
4826;DHT22;2427;50.934;6.776;2023-10-19T16:27:10;15.20;99.90
4826;DHT22;2427;50.934;6.776;2023-10-19T16:29:36;15.20;99.90
4826;DHT22;2427;50.934;6.776;2023-10-19T16:32:04;15.20;99.90